»·PEaware :: AAL7476 KSNA-KSFO

AAL7476 :: KSNA-KSFO

FLIGHT INFORMATION

Flight Status: Arrived
Operator:
American Airlines
More flights by this operator :: More flights under this callsign
Pilot: Andrew N. (12823)
Aircraft: AIRBUS A320
(A320)
More flights by this aircraft type
Origin: KSNA John Wayne-Orange Co
United States
Destination: KSFO San Francisco Intl
United States
More flights between these airports :: More routes between these airports
Route: +HHERO3 IKAYE RIZIN SPLNT STOKD SERFR SERFR3
File this flight plan on PilotEdge
Remarks:
Altitude:
(Current/Filed)
36,000ft
Speed:
(Current/Filed)
465kts
Departed: 28-Sep-18 06:58 AM
Arrived: 28-Sep-18 08:10 AM
Distance/Time
Traveled:
323nm/1:11
Distance/Time
To Go:
Arrived

Flight Plot

Page will automatically refresh every two minutes.

Flight plan parsing failed; only flown route is shown


Map Options




Map Legend


Flown Route
Filed Route
Departure Airport
Arrival Airport
Navaid (VOR, NDB)
Fix

Horizontal Profiles

Position Reports

Time Latitude Longitude Heading Altitude Ground
Speed
28-Sep-18 06:46 33.679340 -117.862355 117 65ft 0kts
28-Sep-18 06:47 33.679340 -117.862355 117 65ft 0kts
28-Sep-18 06:48 33.679340 -117.862355 117 65ft 0kts
28-Sep-18 06:49 33.679340 -117.862355 117 65ft 0kts
28-Sep-18 06:50 33.679340 -117.862356 117 65ft 0kts
28-Sep-18 06:51 33.679340 -117.862356 117 65ft 0kts
28-Sep-18 06:52 33.679340 -117.862356 117 65ft 0kts
28-Sep-18 06:53 33.679494 -117.862714 101 65ft 2kts
28-Sep-18 06:54 33.679301 -117.863187 23 65ft 1kts
28-Sep-18 06:55 33.679274 -117.863201 26 65ft 0kts
28-Sep-18 06:56 33.680005 -117.862740 22 65ft 6kts
28-Sep-18 06:57 33.680645 -117.863054 296 65ft 0kts
28-Sep-18 06:58 33.680645 -117.863056 296 65ft 0kts
28-Sep-18 06:59 33.681018 -117.865441 209 65ft 10kts
28-Sep-18 07:00 33.650837 -117.884635 208 1431ft 181kts
28-Sep-18 07:01 33.595054 -117.896338 186 4355ft 248kts
28-Sep-18 07:02 33.533289 -117.942723 222 7742ft 286kts
28-Sep-18 07:03 33.476073 -118.011113 236 11045ft 314kts
28-Sep-18 07:04 33.427501 -118.110343 238 13243ft 361kts
28-Sep-18 07:05 33.425634 -118.228369 282 15961ft 378kts
28-Sep-18 07:06 33.459540 -118.345939 296 18514ft 388kts
28-Sep-18 07:07 33.509885 -118.461374 296 20689ft 399kts
28-Sep-18 07:08 33.574461 -118.570433 306 22645ft 410kts
28-Sep-18 07:09 33.641892 -118.675740 305 24353ft 419kts
28-Sep-18 07:10 33.736924 -118.756838 330 25919ft 435kts
28-Sep-18 07:11 33.844354 -118.823592 330 27374ft 443kts
28-Sep-18 07:12 33.953598 -118.891704 330 28659ft 452kts
28-Sep-18 07:13 34.064864 -118.961264 330 29798ft 461kts
28-Sep-18 07:14 34.163908 -119.051381 303 30707ft 460kts
28-Sep-18 07:15 34.230537 -119.179829 299 31909ft 457kts
28-Sep-18 07:16 34.296292 -119.307911 299 33107ft 453kts
28-Sep-18 07:17 34.362130 -119.436546 299 34210ft 450kts
28-Sep-18 07:18 34.433152 -119.559631 312 35168ft 453kts
28-Sep-18 07:19 34.519516 -119.665741 311 36049ft 451kts
28-Sep-18 07:20 34.605779 -119.772172 311 36843ft 450kts
28-Sep-18 07:21 34.692153 -119.879054 311 37489ft 450kts
28-Sep-18 07:22 34.779245 -119.987168 311 37999ft 451kts
28-Sep-18 07:23 34.865845 -120.095018 311 38013ft 450kts
28-Sep-18 07:24 34.952597 -120.203399 311 38013ft 451kts
28-Sep-18 07:25 35.039657 -120.312520 311 38013ft 452kts
28-Sep-18 07:26 35.128783 -120.418776 314 38020ft 453kts
28-Sep-18 07:27 35.220800 -120.521945 314 38025ft 453kts
28-Sep-18 07:28 35.313202 -120.625860 314 38022ft 453kts
28-Sep-18 07:29 35.404872 -120.729280 314 38016ft 453kts
28-Sep-18 07:30 35.497487 -120.831150 319 37995ft 456kts
28-Sep-18 07:31 35.597423 -120.923867 319 37989ft 456kts
28-Sep-18 07:32 35.697716 -121.017201 319 37774ft 456kts
28-Sep-18 07:33 35.797685 -121.110519 318 36818ft 460kts
28-Sep-18 07:34 35.898648 -121.205067 317 35866ft 465kts
28-Sep-18 07:35 36.001044 -121.301270 317 34843ft 464kts
28-Sep-18 07:36 36.104629 -121.392932 323 31974ft 475kts
28-Sep-18 07:37 36.215506 -121.479440 323 28584ft 486kts
28-Sep-18 07:38 36.328884 -121.568232 324 25064ft 491kts
28-Sep-18 07:39 36.438054 -121.654078 323 23710ft 446kts
28-Sep-18 07:40 36.536485 -121.731742 323 22409ft 410kts
28-Sep-18 07:41 36.629284 -121.805144 324 20385ft 399kts
28-Sep-18 07:42 36.720344 -121.877400 324 18361ft 387kts
28-Sep-18 07:43 36.820917 -121.916348 345 16372ft 381kts
28-Sep-18 07:44 36.920006 -121.944051 345 14444ft 367kts
28-Sep-18 07:45 37.013869 -121.977314 341 11991ft 351kts
28-Sep-18 07:46 37.104675 -122.012695 340 10358ft 334kts
28-Sep-18 07:47 37.185920 -122.044498 339 9495ft 301kts
28-Sep-18 07:48 37.263511 -122.074922 345 8130ft 291kts
28-Sep-18 07:49 37.336147 -122.103491 339 6911ft 263kts
28-Sep-18 07:50 37.404831 -122.129384 342 5373ft 260kts
28-Sep-18 07:51 37.469775 -122.151415 342 3613ft 222kts
28-Sep-18 07:52 37.523464 -122.169865 341 3119ft 193kts
28-Sep-18 07:53 37.553647 -122.219706 297 2360ft 181kts
28-Sep-18 07:54 37.577035 -122.275539 296 1412ft 179kts
28-Sep-18 07:55 37.598218 -122.326129 296 591ft 133kts
28-Sep-18 07:56 37.616671 -122.370186 296 1719ft 184kts
28-Sep-18 07:57 37.642251 -122.433100 289 3822ft 206kts
28-Sep-18 07:58 37.630769 -122.491129 189 4019ft 208kts
28-Sep-18 07:59 37.573353 -122.483085 174 4022ft 211kts
28-Sep-18 08:00 37.514820 -122.473387 174 4029ft 214kts
28-Sep-18 08:01 37.455615 -122.464315 173 4036ft 216kts
28-Sep-18 08:02 37.439986 -122.409563 55 4045ft 206kts
28-Sep-18 08:03 37.473525 -122.345293 69 4029ft 228kts
28-Sep-18 08:04 37.489988 -122.267704 75 4029ft 231kts
28-Sep-18 08:05 37.479528 -122.190372 104 3563ft 231kts
28-Sep-18 08:06 37.490204 -122.121931 16 3038ft 222kts
28-Sep-18 08:07 37.528149 -122.158413 298 3034ft 185kts
28-Sep-18 08:08 37.551410 -122.214372 298 2479ft 182kts
28-Sep-18 08:09 37.574689 -122.269916 297 1505ft 178kts
28-Sep-18 08:10 37.596029 -122.320913 297 670ft 135kts
28-Sep-18 08:11 37.612284 -122.359709 297 58ft 125kts
28-Sep-18 08:12 37.619629 -122.379348 228 20ft 11kts
28-Sep-18 08:13 37.619111 -122.380198 253 20ft 7kts
28-Sep-18 08:14 37.618846 -122.382390 155 20ft 3kts
28-Sep-18 08:15 37.618303 -122.381944 145 20ft 0kts
28-Sep-18 08:16 37.618303 -122.381944 145 20ft 0kts
28-Sep-18 08:17 37.618303 -122.381944 145 20ft 0kts
28-Sep-18 08:18 37.618303 -122.381944 145 20ft 0kts
28-Sep-18 08:19 37.618303 -122.381944 145 20ft 0kts
28-Sep-18 08:20 37.618303 -122.381944 145 20ft 0kts
28-Sep-18 08:21 37.618303 -122.381944 145 20ft 0kts
28-Sep-18 08:22 37.618303 -122.381944 145 20ft 0kts
28-Sep-18 08:23 37.618303 -122.381944 145 20ft 0kts
28-Sep-18 08:24 37.618303 -122.381944 145 20ft 0kts

Navigation Log

Ident Type
Flight plan parsing failed, navigation log unavailable